sensor_id;sensor_type;location;lat;lon;timestamp;pressure;altitude;pressure_sealevel;temperature;humidity
5146;BME280;2591;48.144;15.152;2022-07-12T00:00:27;75705.16;;;-144.65;100.00
5146;BME280;2591;48.144;15.152;2022-07-12T00:02:57;75703.09;;;-144.65;100.00
5146;BME280;2591;48.144;15.152;2022-07-12T00:05:25;75707.19;;;-144.65;100.00
5146;BME280;2591;48.144;15.152;2022-07-12T00:07:54;75705.16;;;-144.65;100.00
5146;BME280;2591;48.144;15.152;2022-07-12T00:10:25;75709.22;;;-144.65;100.00
5146;BME280;2591;48.144;15.152;2022-07-12T00:12:53;75703.09;;;-144.65;100.00
5146;BME280;2591;48.144;15.152;2022-07-12T00:15:23;75697.00;;;-144.65;100.00
5146;BME280;2591;48.144;15.152;2022-07-12T00:17:53;75688.84;;;-144.65;100.00
5146;BME280;2591;48.144;15.152;2022-07-12T00:20:23;75682.72;;;-144.65;100.00
5146;BME280;2591;48.144;15.152;2022-07-12T00:22:52;75686.78;;;-144.65;100.00
5146;BME280;2591;48.144;15.152;2022-07-12T00:25:21;75686.78;;;-144.65;100.00
5146;BME280;2591;48.144;15.152;2022-07-12T00:27:51;75680.69;;;-144.65;100.00
5146;BME280;2591;48.144;15.152;2022-07-12T00:30:20;75678.63;;;-144.65;100.00
5146;BME280;2591;48.144;15.152;2022-07-12T00:32:49;75674.56;;;-144.65;100.00
5146;BME280;2591;48.144;15.152;2022-07-12T00:35:18;75670.50;;;-144.65;100.00
5146;BME280;2591;48.144;15.152;2022-07-12T00:37:49;75668.44;;;-144.65;100.00
5146;BME280;2591;48.144;15.152;2022-07-12T00:40:19;75658.25;;;-144.65;100.00
5146;BME280;2591;48.144;15.152;2022-07-12T00:42:49;75668.44;;;-144.65;100.00
5146;BME280;2591;48.144;15.152;2022-07-12T00:45:20;75666.41;;;-144.65;100.00
5146;BME280;2591;48.144;15.152;2022-07-12T00:47:50;75670.50;;;-144.65;100.00
5146;BME280;2591;48.144;15.152;2022-07-12T00:50:22;75670.50;;;-144.65;100.00
5146;BME280;2591;48.144;15.152;2022-07-12T00:52:52;75672.53;;;-144.65;100.00
5146;BME280;2591;48.144;15.152;2022-07-12T00:55:22;75680.69;;;-144.65;100.00
5146;BME280;2591;48.144;15.152;2022-07-12T00:57:52;75676.59;;;-144.65;100.00
5146;BME280;2591;48.144;15.152;2022-07-12T01:00:23;75676.59;;;-144.65;100.00
5146;BME280;2591;48.144;15.152;2022-07-12T01:02:54;75682.72;;;-144.65;100.00
5146;BME280;2591;48.144;15.152;2022-07-12T01:05:23;75690.88;;;-144.65;100.00
5146;BME280;2591;48.144;15.152;2022-07-12T01:07:53;75703.09;;;-144.65;100.00
5146;BME280;2591;48.144;15.152;2022-07-12T01:10:22;75707.19;;;-144.65;100.00
5146;BME280;2591;48.144;15.152;2022-07-12T01:12:50;75711.25;;;-144.65;100.00
5146;BME280;2591;48.144;15.152;2022-07-12T01:15:21;75711.25;;;-144.65;100.00
5146;BME280;2591;48.144;15.152;2022-07-12T01:17:49;75707.19;;;-144.65;100.00
5146;BME280;2591;48.144;15.152;2022-07-12T01:20:23;75705.16;;;-144.65;100.00
5146;BME280;2591;48.144;15.152;2022-07-12T01:22:54;75713.28;;;-144.65;100.00
5146;BME280;2591;48.144;15.152;2022-07-12T01:25:24;75721.44;;;-144.65;100.00
5146;BME280;2591;48.144;15.152;2022-07-12T01:27:54;75727.56;;;-144.65;100.00
5146;BME280;2591;48.144;15.152;2022-07-12T01:30:22;75721.44;;;-144.65;100.00
5146;BME280;2591;48.144;15.152;2022-07-12T01:32:51;75723.50;;;-144.65;100.00
5146;BME280;2591;48.144;15.152;2022-07-12T01:35:21;75723.50;;;-144.65;100.00
5146;BME280;2591;48.144;15.152;2022-07-12T01:37:50;75729.59;;;-144.65;100.00
5146;BME280;2591;48.144;15.152;2022-07-12T01:40:20;75739.81;;;-144.65;100.00
5146;BME280;2591;48.144;15.152;2022-07-12T01:42:50;75739.81;;;-144.65;100.00
5146;BME280;2591;48.144;15.152;2022-07-12T01:45:21;75735.72;;;-144.65;100.00
5146;BME280;2591;48.144;15.152;2022-07-12T01:47:51;75731.66;;;-144.65;100.00
5146;BME280;2591;48.144;15.152;2022-07-12T01:50:21;75727.56;;;-144.65;100.00
5146;BME280;2591;48.144;15.152;2022-07-12T01:52:49;75729.59;;;-144.65;100.00
5146;BME280;2591;48.144;15.152;2022-07-12T01:55:21;75735.72;;;-144.65;100.00
5146;BME280;2591;48.144;15.152;2022-07-12T01:57:51;75735.72;;;-144.65;100.00
5146;BME280;2591;48.144;15.152;2022-07-12T02:00:22;75737.75;;;-144.65;100.00
5146;BME280;2591;48.144;15.152;2022-07-12T02:02:54;75737.75;;;-144.65;100.00
5146;BME280;2591;48.144;15.152;2022-07-12T02:05:23;75735.72;;;-144.65;100.00
5146;BME280;2591;48.144;15.152;2022-07-12T02:07:54;75747.94;;;-144.65;100.00
5146;BME280;2591;48.144;15.152;2022-07-12T02:10:26;75752.03;;;-144.65;100.00
5146;BME280;2591;48.144;15.152;2022-07-12T02:12:54;75754.06;;;-144.65;100.00
5146;BME280;2591;48.144;15.152;2022-07-12T02:15:25;75762.22;;;-144.65;100.00
5146;BME280;2591;48.144;15.152;2022-07-12T02:17:56;75768.34;;;-144.65;100.00
5146;BME280;2591;48.144;15.152;2022-07-12T02:20:25;75768.34;;;-144.65;100.00
5146;BME280;2591;48.144;15.152;2022-07-12T02:22:56;75770.38;;;-144.65;100.00
5146;BME280;2591;48.144;15.152;2022-07-12T02:25:27;75768.34;;;-144.65;100.00
5146;BME280;2591;48.144;15.152;2022-07-12T02:27:55;75774.47;;;-144.65;100.00
5146;BME280;2591;48.144;15.152;2022-07-12T02:30:25;75768.34;;;-144.65;100.00
5146;BME280;2591;48.144;15.152;2022-07-12T02:32:54;75768.34;;;-144.65;100.00
5146;BME280;2591;48.144;15.152;2022-07-12T02:35:22;75768.34;;;-144.65;100.00
5146;BME280;2591;48.144;15.152;2022-07-12T02:37:52;75780.56;;;-144.65;100.00
5146;BME280;2591;48.144;15.152;2022-07-12T02:40:22;75784.66;;;-144.65;100.00
5146;BME280;2591;48.144;15.152;2022-07-12T02:43:11;75780.56;;;-144.65;100.00
5146;BME280;2591;48.144;15.152;2022-07-12T02:45:39;75784.66;;;-144.65;100.00
5146;BME280;2591;48.144;15.152;2022-07-12T02:48:08;75774.47;;;-144.65;100.00
5146;BME280;2591;48.144;15.152;2022-07-12T02:50:38;75772.41;;;-144.65;100.00
5146;BME280;2591;48.144;15.152;2022-07-12T02:53:08;75772.41;;;-144.65;100.00
5146;BME280;2591;48.144;15.152;2022-07-12T02:55:39;75772.41;;;-144.65;100.00
5146;BME280;2591;48.144;15.152;2022-07-12T02:58:09;75768.34;;;-144.65;100.00
5146;BME280;2591;48.144;15.152;2022-07-12T03:00:40;75770.38;;;-144.65;100.00
5146;BME280;2591;48.144;15.152;2022-07-12T03:03:09;75770.38;;;-144.65;100.00
5146;BME280;2591;48.144;15.152;2022-07-12T03:05:38;75772.41;;;-144.65;100.00
5146;BME280;2591;48.144;15.152;2022-07-12T03:08:08;75768.34;;;-144.65;100.00
5146;BME280;2591;48.144;15.152;2022-07-12T03:10:36;75764.25;;;-144.65;100.00
5146;BME280;2591;48.144;15.152;2022-07-12T03:13:05;75772.41;;;-144.65;100.00
5146;BME280;2591;48.144;15.152;2022-07-12T03:15:34;75766.31;;;-144.65;100.00
5146;BME280;2591;48.144;15.152;2022-07-12T03:18:05;75758.16;;;-144.65;100.00
5146;BME280;2591;48.144;15.152;2022-07-12T03:20:33;75768.34;;;-144.65;100.00
5146;BME280;2591;48.144;15.152;2022-07-12T03:23:02;75768.34;;;-144.65;100.00
5146;BME280;2591;48.144;15.152;2022-07-12T03:25:30;75768.34;;;-144.65;100.00
5146;BME280;2591;48.144;15.152;2022-07-12T03:27:58;75776.50;;;-144.65;100.00
5146;BME280;2591;48.144;15.152;2022-07-12T03:30:27;75772.41;;;-144.65;100.00
5146;BME280;2591;48.144;15.152;2022-07-12T03:32:55;75768.34;;;-144.65;100.00
5146;BME280;2591;48.144;15.152;2022-07-12T03:35:26;75764.25;;;-144.65;100.00
5146;BME280;2591;48.144;15.152;2022-07-12T03:37:55;75758.16;;;-144.65;100.00
5146;BME280;2591;48.144;15.152;2022-07-12T03:40:23;75752.03;;;-144.65;100.00
5146;BME280;2591;48.144;15.152;2022-07-12T03:42:53;75747.94;;;-144.65;100.00
5146;BME280;2591;48.144;15.152;2022-07-12T03:45:23;75752.03;;;-144.65;100.00
5146;BME280;2591;48.144;15.152;2022-07-12T03:47:51;75747.94;;;-144.65;100.00
5146;BME280;2591;48.144;15.152;2022-07-12T03:50:20;75747.94;;;-144.65;100.00
5146;BME280;2591;48.144;15.152;2022-07-12T03:52:53;75747.94;;;-144.65;100.00
5146;BME280;2591;48.144;15.152;2022-07-12T03:55:22;75747.94;;;-144.65;100.00
5146;BME280;2591;48.144;15.152;2022-07-12T03:57:51;75747.94;;;-144.65;100.00
5146;BME280;2591;48.144;15.152;2022-07-12T04:00:20;75752.03;;;-144.65;100.00
5146;BME280;2591;48.144;15.152;2022-07-12T04:02:49;75752.03;;;-144.65;100.00
5146;BME280;2591;48.144;15.152;2022-07-12T04:05:20;75750.00;;;-144.65;100.00
5146;BME280;2591;48.144;15.152;2022-07-12T04:07:54;75747.94;;;-144.65;100.00
5146;BME280;2591;48.144;15.152;2022-07-12T04:10:22;75743.88;;;-144.65;100.00
5146;BME280;2591;48.144;15.152;2022-07-12T04:12:51;75737.75;;;-144.65;100.00
5146;BME280;2591;48.144;15.152;2022-07-12T04:15:21;75735.72;;;-144.65;100.00
5146;BME280;2591;48.144;15.152;2022-07-12T04:17:51;75731.66;;;-144.65;100.00
5146;BME280;2591;48.144;15.152;2022-07-12T04:20:20;75725.53;;;-144.65;100.00
5146;BME280;2591;48.144;15.152;2022-07-12T04:22:50;75721.44;;;-144.65;100.00
5146;BME280;2591;48.144;15.152;2022-07-12T04:25:20;75717.38;;;-144.65;100.00
5146;BME280;2591;48.144;15.152;2022-07-12T04:27:49;75715.34;;;-144.65;100.00
5146;BME280;2591;48.144;15.152;2022-07-12T04:30:17;75715.34;;;-144.65;100.00
5146;BME280;2591;48.144;15.152;2022-07-12T04:32:48;75711.25;;;-144.65;100.00
5146;BME280;2591;48.144;15.152;2022-07-12T04:35:17;75711.25;;;-144.65;100.00
5146;BME280;2591;48.144;15.152;2022-07-12T04:37:46;75715.34;;;-144.65;100.00
5146;BME280;2591;48.144;15.152;2022-07-12T04:40:15;75705.16;;;-144.65;100.00
5146;BME280;2591;48.144;15.152;2022-07-12T04:42:45;75703.09;;;-144.65;100.00
5146;BME280;2591;48.144;15.152;2022-07-12T04:45:15;75699.03;;;-144.65;100.00
5146;BME280;2591;48.144;15.152;2022-07-12T04:47:44;75692.91;;;-144.65;100.00
5146;BME280;2591;48.144;15.152;2022-07-12T04:50:15;75690.88;;;-144.65;100.00
5146;BME280;2591;48.144;15.152;2022-07-12T04:52:44;75686.78;;;-144.65;100.00
5146;BME280;2591;48.144;15.152;2022-07-12T04:55:12;75688.84;;;-144.65;100.00
5146;BME280;2591;48.144;15.152;2022-07-12T04:57:41;75686.78;;;-144.65;100.00
5146;BME280;2591;48.144;15.152;2022-07-12T05:00:12;75678.63;;;-144.65;100.00
5146;BME280;2591;48.144;15.152;2022-07-12T05:02:42;75678.63;;;-144.65;100.00
5146;BME280;2591;48.144;15.152;2022-07-12T05:05:10;75672.53;;;-144.65;100.00
5146;BME280;2591;48.144;15.152;2022-07-12T05:07:40;75670.50;;;-144.65;100.00
5146;BME280;2591;48.144;15.152;2022-07-12T05:10:13;75666.41;;;-144.65;100.00
5146;BME280;2591;48.144;15.152;2022-07-12T05:12:41;75678.63;;;-144.65;100.00
5146;BME280;2591;48.144;15.152;2022-07-12T05:15:11;75674.56;;;-144.65;100.00
5146;BME280;2591;48.144;15.152;2022-07-12T05:17:41;75676.59;;;-144.65;100.00
5146;BME280;2591;48.144;15.152;2022-07-12T05:20:10;75672.53;;;-144.65;100.00
5146;BME280;2591;48.144;15.152;2022-07-12T05:22:38;75674.56;;;-144.65;100.00
5146;BME280;2591;48.144;15.152;2022-07-12T05:25:09;75674.56;;;-144.65;100.00
5146;BME280;2591;48.144;15.152;2022-07-12T05:27:38;75676.59;;;-144.65;100.00
5146;BME280;2591;48.144;15.152;2022-07-12T05:30:06;75670.50;;;-144.65;100.00
5146;BME280;2591;48.144;15.152;2022-07-12T05:32:38;75674.56;;;-144.65;100.00
5146;BME280;2591;48.144;15.152;2022-07-12T05:35:07;75686.78;;;-144.65;100.00
5146;BME280;2591;48.144;15.152;2022-07-12T05:37:35;75684.75;;;-144.65;100.00
5146;BME280;2591;48.144;15.152;2022-07-12T05:40:05;75674.56;;;-144.65;100.00
5146;BME280;2591;48.144;15.152;2022-07-12T05:42:34;75666.41;;;-144.65;100.00
5146;BME280;2591;48.144;15.152;2022-07-12T05:45:06;75656.22;;;-144.65;100.00
5146;BME280;2591;48.144;15.152;2022-07-12T05:47:35;75654.19;;;-144.65;100.00
5146;BME280;2591;48.144;15.152;2022-07-12T05:50:07;75650.09;;;-144.65;100.00
5146;BME280;2591;48.144;15.152;2022-07-12T05:52:37;75641.94;;;-144.65;100.00
5146;BME280;2591;48.144;15.152;2022-07-12T05:55:22;75633.78;;;-144.65;100.00
5146;BME280;2591;48.144;15.152;2022-07-12T05:57:52;75621.56;;;-144.65;100.00
5146;BME280;2591;48.144;15.152;2022-07-12T06:00:20;75609.34;;;-144.65;99.90
5146;BME280;2591;48.144;15.152;2022-07-12T06:02:50;75601.19;;;-144.65;97.90
5146;BME280;2591;48.144;15.152;2022-07-12T06:05:20;75601.19;;;-144.65;97.90
5146;BME280;2591;48.144;15.152;2022-07-12T06:07:49;75593.03;;;-144.65;97.66
5146;BME280;2591;48.144;15.152;2022-07-12T06:10:18;75597.09;;;-144.65;96.51
5146;BME280;2591;48.144;15.152;2022-07-12T06:12:47;75588.94;;;-144.65;96.07
5146;BME280;2591;48.144;15.152;2022-07-12T06:15:18;75582.84;;;-144.65;95.30
5146;BME280;2591;48.144;15.152;2022-07-12T06:17:49;75568.56;;;-144.65;95.02
5146;BME280;2591;48.144;15.152;2022-07-12T06:20:17;75564.47;;;-144.65;95.44
5146;BME280;2591;48.144;15.152;2022-07-12T06:22:47;75554.28;;;-144.65;94.60
5146;BME280;2591;48.144;15.152;2022-07-12T06:25:16;75535.94;;;-144.65;94.93
5146;BME280;2591;48.144;15.152;2022-07-12T06:28:06;75515.56;;;-144.65;94.95
5146;BME280;2591;48.144;15.152;2022-07-12T06:30:37;75511.47;;;-144.65;91.65
5146;BME280;2591;48.144;15.152;2022-07-12T06:33:05;75519.63;;;-144.65;90.49
5146;BME280;2591;48.144;15.152;2022-07-12T06:35:34;75527.78;;;-144.65;91.01
5146;BME280;2591;48.144;15.152;2022-07-12T06:38:04;75515.56;;;-144.65;92.70
5146;BME280;2591;48.144;15.152;2022-07-12T06:40:34;75503.34;;;-144.65;92.79
5146;BME280;2591;48.144;15.152;2022-07-12T06:43:02;75491.09;;;-144.65;91.34
5146;BME280;2591;48.144;15.152;2022-07-12T06:45:32;75487.03;;;-144.65;87.92
5146;BME280;2591;48.144;15.152;2022-07-12T06:48:02;75485.00;;;-144.65;88.66
5146;BME280;2591;48.144;15.152;2022-07-12T06:50:32;75491.09;;;-144.65;87.38
5146;BME280;2591;48.144;15.152;2022-07-12T06:53:04;75482.94;;;-144.65;87.30
5146;BME280;2591;48.144;15.152;2022-07-12T06:55:32;75474.78;;;-144.65;86.95
5146;BME280;2591;48.144;15.152;2022-07-12T06:58:00;75468.69;;;-144.65;86.65
5146;BME280;2591;48.144;15.152;2022-07-12T07:00:32;75458.50;;;-144.65;86.42
5146;BME280;2591;48.144;15.152;2022-07-12T07:03:00;75440.13;;;-144.65;85.42
5146;BME280;2591;48.144;15.152;2022-07-12T07:05:28;75432.00;;;-144.65;85.26
5146;BME280;2591;48.144;15.152;2022-07-12T07:07:58;75421.78;;;-144.65;86.04
5146;BME280;2591;48.144;15.152;2022-07-12T07:10:34;75413.66;;;-144.65;84.04
5146;BME280;2591;48.144;15.152;2022-07-12T07:13:02;75405.50;;;-144.65;85.33
5146;BME280;2591;48.144;15.152;2022-07-12T07:15:32;75405.50;;;-144.65;85.10
5146;BME280;2591;48.144;15.152;2022-07-12T07:18:01;75391.22;;;-144.65;83.92
5146;BME280;2591;48.144;15.152;2022-07-12T07:20:29;75389.19;;;-144.65;83.31
5146;BME280;2591;48.144;15.152;2022-07-12T07:22:57;75387.13;;;-144.65;83.57
5146;BME280;2591;48.144;15.152;2022-07-12T07:25:27;75372.88;;;-144.65;82.67
5146;BME280;2591;48.144;15.152;2022-07-12T07:27:58;75354.53;;;-144.65;82.42
5146;BME280;2591;48.144;15.152;2022-07-12T07:30:27;75340.25;;;-144.65;82.24
5146;BME280;2591;48.144;15.152;2022-07-12T07:33:13;75328.03;;;-144.65;81.33
5146;BME280;2591;48.144;15.152;2022-07-12T07:35:43;75319.88;;;-144.65;82.44
5146;BME280;2591;48.144;15.152;2022-07-12T07:38:11;75311.72;;;-144.65;80.94
5146;BME280;2591;48.144;15.152;2022-07-12T07:40:42;75295.41;;;-144.65;80.59
5146;BME280;2591;48.144;15.152;2022-07-12T07:43:14;75275.03;;;-144.65;81.19
5146;BME280;2591;48.144;15.152;2022-07-12T07:45:42;75254.66;;;-144.65;79.67
5146;BME280;2591;48.144;15.152;2022-07-12T07:48:13;75262.81;;;-144.65;75.35
5146;BME280;2591;48.144;15.152;2022-07-12T07:50:51;75258.72;;;-144.65;76.37
5146;BME280;2591;48.144;15.152;2022-07-12T07:53:20;75258.72;;;-144.65;76.58
5146;BME280;2591;48.144;15.152;2022-07-12T07:55:49;75258.72;;;-144.65;76.30
5146;BME280;2591;48.144;15.152;2022-07-12T07:58:19;75244.47;;;-144.65;76.09
5146;BME280;2591;48.144;15.152;2022-07-12T08:00:51;75254.66;;;-144.65;75.13
5146;BME280;2591;48.144;15.152;2022-07-12T08:03:20;75258.72;;;-144.65;73.53
5146;BME280;2591;48.144;15.152;2022-07-12T08:05:49;75262.81;;;-144.65;74.03
5146;BME280;2591;48.144;15.152;2022-07-12T08:08:18;75258.72;;;-144.65;73.37
5146;BME280;2591;48.144;15.152;2022-07-12T08:10:49;75258.72;;;-144.65;71.43
5146;BME280;2591;48.144;15.152;2022-07-12T08:13:20;75264.84;;;-144.65;71.74
5146;BME280;2591;48.144;15.152;2022-07-12T08:15:49;75254.66;;;-144.65;72.92
5146;BME280;2591;48.144;15.152;2022-07-12T08:18:19;75246.50;;;-144.65;73.77
5146;BME280;2591;48.144;15.152;2022-07-12T08:20:50;75244.47;;;-144.65;72.46
5146;BME280;2591;48.144;15.152;2022-07-12T08:23:18;75254.66;;;-144.65;72.74
5146;BME280;2591;48.144;15.152;2022-07-12T08:25:46;75260.75;;;-144.65;75.31
5146;BME280;2591;48.144;15.152;2022-07-12T08:28:16;75246.50;;;-144.65;74.12
5146;BME280;2591;48.144;15.152;2022-07-12T08:30:47;75232.22;;;-144.65;72.51
5146;BME280;2591;48.144;15.152;2022-07-12T08:33:16;75201.66;;;-144.65;71.28
5146;BME280;2591;48.144;15.152;2022-07-12T08:35:45;75187.38;;;-144.65;70.93
5146;BME280;2591;48.144;15.152;2022-07-12T08:38:14;75187.38;;;-144.65;70.67
5146;BME280;2591;48.144;15.152;2022-07-12T08:40:42;75193.50;;;-144.65;70.46
5146;BME280;2591;48.144;15.152;2022-07-12T08:43:10;75193.50;;;-144.65;68.53
5146;BME280;2591;48.144;15.152;2022-07-12T08:45:41;75197.56;;;-144.65;69.91
5146;BME280;2591;48.144;15.152;2022-07-12T08:48:12;75181.28;;;-144.65;69.27
5146;BME280;2591;48.144;15.152;2022-07-12T08:50:40;75164.97;;;-144.65;68.57
5146;BME280;2591;48.144;15.152;2022-07-12T08:53:13;75140.50;;;-144.65;70.65
5146;BME280;2591;48.144;15.152;2022-07-12T08:55:44;75107.91;;;-144.65;68.37
5146;BME280;2591;48.144;15.152;2022-07-12T08:58:16;75063.06;;;-144.65;66.40
5146;BME280;2591;48.144;15.152;2022-07-12T09:00:48;75014.13;;;-144.65;64.73
5146;BME280;2591;48.144;15.152;2022-07-12T09:03:19;74987.66;;;-144.65;65.82
5146;BME280;2591;48.144;15.152;2022-07-12T09:05:51;74953.00;;;-144.65;66.68
5146;BME280;2591;48.144;15.152;2022-07-12T09:08:27;74891.84;;;-144.65;61.24
5146;BME280;2591;48.144;15.152;2022-07-12T09:10:58;74859.25;;;-144.65;56.21
5146;BME280;2591;48.144;15.152;2022-07-12T09:13:49;74847.00;;;-144.65;51.78
5146;BME280;2591;48.144;15.152;2022-07-12T09:16:21;74863.31;;;-144.65;50.48
5146;BME280;2591;48.144;15.152;2022-07-12T09:19:11;74885.75;;;-144.65;50.85
5146;BME280;2591;48.144;15.152;2022-07-12T09:21:52;74887.78;;;-144.65;52.66
5146;BME280;2591;48.144;15.152;2022-07-12T09:24:24;74883.69;;;-144.65;52.48
5146;BME280;2591;48.144;15.152;2022-07-12T09:26:57;74851.09;;;-144.65;48.32
5146;BME280;2591;48.144;15.152;2022-07-12T09:29:26;74885.75;;;-144.65;49.84
5146;BME280;2591;48.144;15.152;2022-07-12T09:31:55;74916.31;;;-144.65;50.49
5146;BME280;2591;48.144;15.152;2022-07-12T09:34:44;74934.66;;;-144.65;52.08
5146;BME280;2591;48.144;15.152;2022-07-12T09:37:39;74887.78;;;-144.65;51.38
5146;BME280;2591;48.144;15.152;2022-07-12T09:40:09;74904.09;;;-144.65;51.07
5146;BME280;2591;48.144;15.152;2022-07-12T09:42:39;74924.47;;;-144.65;52.12
5146;BME280;2591;48.144;15.152;2022-07-12T09:45:10;74932.63;;;-144.65;52.73
5146;BME280;2591;48.144;15.152;2022-07-12T09:47:43;74904.09;;;-144.65;53.17
5146;BME280;2591;48.144;15.152;2022-07-12T09:50:14;74857.22;;;-144.65;53.08
5146;BME280;2591;48.144;15.152;2022-07-12T09:52:45;74844.97;;;-144.65;53.95
5146;BME280;2591;48.144;15.152;2022-07-12T09:55:17;74736.97;;;-144.65;50.29
5146;BME280;2591;48.144;15.152;2022-07-12T09:57:48;74688.06;;;-144.65;46.71
5146;BME280;2591;48.144;15.152;2022-07-12T10:00:20;74667.69;;;-144.65;47.74
5146;BME280;2591;48.144;15.152;2022-07-12T10:02:50;74594.31;;;-144.65;45.22
5146;BME280;2591;48.144;15.152;2022-07-12T10:05:24;74622.84;;;-144.65;44.37
5146;BME280;2591;48.144;15.152;2022-07-12T10:07:55;74683.97;;;-144.65;44.59
5146;BME280;2591;48.144;15.152;2022-07-12T10:10:24;74688.06;;;-144.65;43.82
5146;BME280;2591;48.144;15.152;2022-07-12T10:12:52;74718.63;;;-144.65;44.16
5146;BME280;2591;48.144;15.152;2022-07-12T10:15:25;74759.38;;;-144.65;44.83
5146;BME280;2591;48.144;15.152;2022-07-12T10:17:55;74792.00;;;-144.65;46.84
5146;BME280;2591;48.144;15.152;2022-07-12T10:20:29;74759.38;;;-144.65;47.36
5146;BME280;2591;48.144;15.152;2022-07-12T10:23:27;74757.34;;;-144.65;47.05
5146;BME280;2591;48.144;15.152;2022-07-12T10:25:57;74761.41;;;-144.65;46.25
5146;BME280;2591;48.144;15.152;2022-07-12T10:31:34;74785.88;;;-144.65;48.71
5146;BME280;2591;48.144;15.152;2022-07-12T10:34:11;74692.13;;;-144.65;48.25
5146;BME280;2591;48.144;15.152;2022-07-12T10:37:09;74610.63;;;-144.65;45.70
5146;BME280;2591;48.144;15.152;2022-07-12T10:40:11;74604.50;;;-144.65;44.64
5146;BME280;2591;48.144;15.152;2022-07-12T10:42:40;74679.91;;;-144.65;46.71
5146;BME280;2591;48.144;15.152;2022-07-12T10:45:13;74753.28;;;-144.65;46.60
5146;BME280;2591;48.144;15.152;2022-07-12T10:47:55;74810.34;;;-144.65;48.15
5146;BME280;2591;48.144;15.152;2022-07-12T10:50:53;74810.34;;;-144.65;47.13
5146;BME280;2591;48.144;15.152;2022-07-12T10:53:30;74810.34;;;-144.65;45.96
5146;BME280;2591;48.144;15.152;2022-07-12T10:56:10;74789.94;;;-144.65;47.15
5146;BME280;2591;48.144;15.152;2022-07-12T10:58:40;74728.81;;;-144.65;45.75
5146;BME280;2591;48.144;15.152;2022-07-12T11:01:11;74671.75;;;-144.65;44.37
5146;BME280;2591;48.144;15.152;2022-07-12T11:03:42;74631.00;;;-144.65;44.76
5146;BME280;2591;48.144;15.152;2022-07-12T11:06:12;74626.91;;;-144.65;49.07
5146;BME280;2591;48.144;15.152;2022-07-12T11:08:50;74569.84;;;-144.65;49.35
5146;BME280;2591;48.144;15.152;2022-07-12T11:11:20;74525.03;;;-144.65;47.30
5146;BME280;2591;48.144;15.152;2022-07-12T11:13:50;74602.47;;;-144.65;48.10
5146;BME280;2591;48.144;15.152;2022-07-12T11:16:18;74651.38;;;-144.65;48.73
5146;BME280;2591;48.144;15.152;2022-07-12T11:18:47;74698.25;;;-144.65;49.66
5146;BME280;2591;48.144;15.152;2022-07-12T11:21:18;74720.66;;;-144.65;51.01
5146;BME280;2591;48.144;15.152;2022-07-12T11:23:49;74702.31;;;-144.65;50.55
5146;BME280;2591;48.144;15.152;2022-07-12T11:26:18;74661.56;;;-144.65;50.62
5146;BME280;2591;48.144;15.152;2022-07-12T11:28:49;74633.03;;;-144.65;50.36
5146;BME280;2591;48.144;15.152;2022-07-12T11:31:18;74584.13;;;-144.65;48.36
5146;BME280;2591;48.144;15.152;2022-07-12T11:33:49;74580.03;;;-144.65;48.29
5146;BME280;2591;48.144;15.152;2022-07-12T11:36:20;74643.22;;;-144.65;48.96
5146;BME280;2591;48.144;15.152;2022-07-12T11:38:54;74690.09;;;-144.65;47.50
5146;BME280;2591;48.144;15.152;2022-07-12T11:41:23;74692.13;;;-144.65;46.95
5146;BME280;2591;48.144;15.152;2022-07-12T11:43:52;74781.81;;;-144.65;48.97
5146;BME280;2591;48.144;15.152;2022-07-12T11:46:20;74796.06;;;-144.65;48.78
5146;BME280;2591;48.144;15.152;2022-07-12T11:48:48;74810.34;;;-144.65;49.14
5146;BME280;2591;48.144;15.152;2022-07-12T11:51:18;74840.91;;;-144.65;51.07
5146;BME280;2591;48.144;15.152;2022-07-12T11:53:51;74822.56;;;-144.65;50.12
5146;BME280;2591;48.144;15.152;2022-07-12T11:56:30;74826.63;;;-144.65;50.27
5146;BME280;2591;48.144;15.152;2022-07-12T11:59:00;74838.88;;;-144.65;50.45
5146;BME280;2591;48.144;15.152;2022-07-12T12:01:29;74842.94;;;-144.65;50.91
5146;BME280;2591;48.144;15.152;2022-07-12T12:03:58;74851.09;;;-144.65;49.99
5146;BME280;2591;48.144;15.152;2022-07-12T12:06:29;74879.63;;;-144.65;50.05
5146;BME280;2591;48.144;15.152;2022-07-12T12:09:04;74912.22;;;-144.65;50.74
5146;BME280;2591;48.144;15.152;2022-07-12T12:11:35;74904.09;;;-144.65;50.84
5146;BME280;2591;48.144;15.152;2022-07-12T12:14:04;74902.03;;;-144.65;50.52
5146;BME280;2591;48.144;15.152;2022-07-12T12:16:32;74922.44;;;-144.65;51.10
5146;BME280;2591;48.144;15.152;2022-07-12T12:19:03;74912.22;;;-144.65;50.23
5146;BME280;2591;48.144;15.152;2022-07-12T12:21:34;74897.97;;;-144.65;50.19
5146;BME280;2591;48.144;15.152;2022-07-12T12:24:10;74875.56;;;-144.65;49.36
5146;BME280;2591;48.144;15.152;2022-07-12T12:26:42;74883.69;;;-144.65;50.10
5146;BME280;2591;48.144;15.152;2022-07-12T12:29:11;74871.47;;;-144.65;50.21
5146;BME280;2591;48.144;15.152;2022-07-12T12:31:56;74867.41;;;-144.65;50.03
5146;BME280;2591;48.144;15.152;2022-07-12T12:34:24;74855.16;;;-144.65;49.13
5146;BME280;2591;48.144;15.152;2022-07-12T12:36:53;74855.16;;;-144.65;50.27
5146;BME280;2591;48.144;15.152;2022-07-12T12:39:30;74832.75;;;-144.65;48.89
5146;BME280;2591;48.144;15.152;2022-07-12T12:42:00;74822.56;;;-144.65;47.81
5146;BME280;2591;48.144;15.152;2022-07-12T12:44:33;74818.47;;;-144.65;48.34
5146;BME280;2591;48.144;15.152;2022-07-12T12:47:06;74781.81;;;-144.65;48.25
5146;BME280;2591;48.144;15.152;2022-07-12T12:49:49;74741.03;;;-144.65;47.64
5146;BME280;2591;48.144;15.152;2022-07-12T12:52:27;74696.19;;;-144.65;47.10
5146;BME280;2591;48.144;15.152;2022-07-12T12:54:56;74639.13;;;-144.65;46.93
5146;BME280;2591;48.144;15.152;2022-07-12T12:57:28;74626.91;;;-144.65;46.75
5146;BME280;2591;48.144;15.152;2022-07-12T12:59:56;74639.13;;;-144.65;48.03
5146;BME280;2591;48.144;15.152;2022-07-12T13:02:24;74641.19;;;-144.65;45.25
5146;BME280;2591;48.144;15.152;2022-07-12T13:04:53;74659.53;;;-144.65;46.23
5146;BME280;2591;48.144;15.152;2022-07-12T13:07:22;74578.00;;;-144.65;44.53